Time;durP1;ratioP1;P1;durP2;ratioP2;P2;SDS_P1;SDS_P2;PMS_P1;PMS_P2;Temp;Humidity;BMP_temperature;BMP_pressure;BME280_temperature;BME280_humidity;BME280_pressure;Samples;Min_cycle;Max_cycle;Signal;HPM_P1;HPM_P2
2022/11/12 00:00:40;;;;;;;17.30;8.90;;;8.80;99.90;;;;;;5075520;28;20024;-66
2022/11/12 00:03:06;;;;;;;15.65;8.60;;;8.80;99.90;;;;;;5079682;28;20027;-67
2022/11/12 00:05:32;;;;;;;11.88;7.18;;;8.80;99.90;;;;;;5085218;28;20051;-66
2022/11/12 00:07:58;;;;;;;16.23;8.50;;;8.80;99.90;;;;;;5059673;28;20379;-66
2022/11/12 00:10:24;;;;;;;15.77;7.28;;;8.80;99.90;;;;;;5080244;28;20033;-66
2022/11/12 00:12:49;;;;;;;11.73;5.85;;;8.70;99.90;;;;;;5075621;28;20090;-66
2022/11/12 00:15:15;;;;;;;13.07;7.03;;;8.70;99.90;;;;;;5084252;28;20374;-66
2022/11/12 00:17:41;;;;;;;10.98;5.63;;;8.80;99.90;;;;;;5084823;28;20024;-66
2022/11/12 00:20:08;;;;;;;12.10;7.15;;;8.80;99.90;;;;;;5073588;28;20419;-66
2022/11/12 00:22:34;;;;;;;13.10;7.10;;;8.80;99.90;;;;;;5084495;28;20050;-66
2022/11/12 00:25:00;;;;;;;14.23;8.10;;;8.70;99.90;;;;;;5070708;28;20032;-66
2022/11/12 00:27:25;;;;;;;14.95;7.78;;;8.60;99.90;;;;;;5071867;28;20115;-66
2022/11/12 00:29:51;;;;;;;13.52;8.15;;;8.60;99.90;;;;;;5071252;28;20488;-66
2022/11/12 00:32:18;;;;;;;14.13;8.63;;;8.60;99.90;;;;;;5061625;28;20052;-67
2022/11/12 00:34:44;;;;;;;20.08;8.00;;;8.60;99.90;;;;;;5084344;28;20119;-66
2022/11/12 00:37:10;;;;;;;10.60;7.57;;;8.50;99.90;;;;;;5072941;28;20538;-66
2022/11/12 00:39:36;;;;;;;15.15;7.85;;;8.50;99.90;;;;;;5085125;28;20036;-66
2022/11/12 00:42:02;;;;;;;14.55;7.43;;;8.50;99.90;;;;;;5067762;28;20363;-65
2022/11/12 00:44:28;;;;;;;9.25;6.60;;;8.50;99.90;;;;;;5075951;28;20028;-66
2022/11/12 00:46:55;;;;;;;13.05;8.07;;;8.50;99.90;;;;;;5069776;28;20024;-66
2022/11/12 00:49:20;;;;;;;11.88;7.35;;;8.40;99.90;;;;;;5077126;28;20076;-66
2022/11/12 00:51:46;;;;;;;11.93;7.72;;;8.40;99.90;;;;;;5080467;28;20043;-66
2022/11/12 00:54:12;;;;;;;11.98;6.60;;;8.40;99.90;;;;;;5083254;28;20051;-66
2022/11/12 00:56:38;;;;;;;12.70;7.50;;;8.40;99.90;;;;;;5070425;28;20123;-66
2022/11/12 00:59:03;;;;;;;12.05;6.93;;;8.30;99.90;;;;;;5056612;28;20056;-65
2022/11/12 01:01:29;;;;;;;12.02;7.22;;;8.30;99.90;;;;;;5072707;28;20445;-65
2022/11/12 01:03:58;;;;;;;17.48;7.57;;;8.40;99.90;;;;;;5081155;28;20032;-65
2022/11/12 01:06:24;;;;;;;15.25;7.47;;;8.20;99.90;;;;;;5074860;28;20028;-65
2022/11/12 01:08:50;;;;;;;11.70;7.63;;;8.20;99.90;;;;;;5069181;28;20139;-65
2022/11/12 01:11:25;;;;;;;13.10;6.97;;;8.20;99.90;;;;;;5079114;28;20031;-66
2022/11/12 01:13:58;;;;;;;13.05;8.50;;;8.20;99.90;;;;;;5070405;28;20056;-65
2022/11/12 01:16:27;;;;;;;15.38;8.18;;;8.30;99.90;;;;;;5075912;28;20055;-65
2022/11/12 01:18:54;;;;;;;11.98;7.25;;;8.20;99.90;;;;;;5072685;28;20051;-66
2022/11/12 01:21:21;;;;;;;11.02;7.05;;;8.20;99.90;;;;;;5083086;28;20081;-66
2022/11/12 01:23:47;;;;;;;12.32;7.53;;;8.30;99.90;;;;;;5064773;28;20072;-65
2022/11/12 01:26:16;;;;;;;15.32;8.40;;;8.30;99.90;;;;;;5076519;28;20032;-65
2022/11/12 01:28:43;;;;;;;13.77;8.13;;;8.40;99.90;;;;;;5073973;28;20127;-66
2022/11/12 01:31:20;;;;;;;13.73;8.23;;;8.30;99.90;;;;;;5078968;28;20467;-65
2022/11/12 01:33:48;;;;;;;13.52;8.07;;;8.20;99.90;;;;;;5063870;28;20028;-66
2022/11/12 01:36:15;;;;;;;16.27;7.13;;;8.30;99.90;;;;;;5073985;28;20028;-66
2022/11/12 01:38:42;;;;;;;13.00;7.47;;;8.40;99.90;;;;;;5075076;28;20028;-66
2022/11/12 01:41:11;;;;;;;11.60;6.80;;;8.40;99.90;;;;;;5078463;28;20024;-65
2022/11/12 01:43:37;;;;;;;12.98;7.25;;;8.50;99.90;;;;;;5064606;28;20070;-65
2022/11/12 01:46:13;;;;;;;12.57;6.97;;;8.50;99.90;;;;;;5075118;28;20052;-66
2022/11/12 01:48:53;;;;;;;13.30;7.80;;;8.50;99.90;;;;;;5072041;28;20036;-66
2022/11/12 01:51:24;;;;;;;11.32;7.07;;;8.60;99.90;;;;;;5077127;28;20047;-66
2022/11/12 01:53:54;;;;;;;11.77;6.55;;;8.60;99.90;;;;;;5076451;28;20242;-66
2022/11/12 01:56:22;;;;;;;11.27;6.65;;;8.60;99.90;;;;;;5080059;28;20079;-65
2022/11/12 01:58:54;;;;;;;11.13;7.00;;;8.60;99.90;;;;;;5073932;28;20423;-66
2022/11/12 02:01:19;;;;;;;11.63;6.93;;;8.70;99.90;;;;;;5076837;28;20028;-66
2022/11/12 02:03:45;;;;;;;11.38;6.60;;;8.80;99.90;;;;;;5071200;28;20039;-66
2022/11/12 02:06:14;;;;;;;10.82;6.97;;;8.80;99.90;;;;;;5066791;28;20052;-66
2022/11/12 02:08:40;;;;;;;11.32;6.68;;;8.80;99.90;;;;;;5070133;28;20479;-66
2022/11/12 02:11:17;;;;;;;9.13;5.93;;;8.90;99.90;;;;;;5074150;28;20032;-66
2022/11/12 02:13:56;;;;;;;12.60;6.45;;;9.00;99.90;;;;;;5065569;28;20017;-66
2022/11/12 02:16:25;;;;;;;10.52;6.47;;;9.10;99.90;;;;;;5076371;28;20395;-65
2022/11/12 02:18:51;;;;;;;10.02;6.35;;;9.10;99.90;;;;;;5056850;28;20383;-66
2022/11/12 02:21:21;;;;;;;11.82;6.50;;;9.30;99.90;;;;;;5071615;28;20032;-66
2022/11/12 02:24:00;;;;;;;13.13;6.47;;;9.30;99.90;;;;;;5072393;28;20498;-66
2022/11/12 02:26:29;;;;;;;14.88;6.55;;;9.30;99.90;;;;;;5081668;28;20020;-65
2022/11/12 02:28:54;;;;;;;13.93;6.90;;;9.30;99.90;;;;;;5070852;28;20032;-65
2022/11/12 02:31:20;;;;;;;15.13;5.53;;;9.40;99.90;;;;;;5080763;28;20083;-66
2022/11/12 02:33:46;;;;;;;9.98;6.50;;;9.30;99.90;;;;;;5070938;28;20074;-66
2022/11/12 02:36:12;;;;;;;10.23;6.05;;;9.40;99.90;;;;;;5078472;28;20387;-66
2022/11/12 02:38:37;;;;;;;9.70;5.70;;;9.40;99.90;;;;;;5073159;28;20028;-66
2022/11/12 02:41:03;;;;;;;10.05;6.03;;;9.50;99.90;;;;;;5074790;28;20036;-65
2022/11/12 02:43:29;;;;;;;12.70;6.47;;;9.50;99.90;;;;;;5077460;28;20621;-66
2022/11/12 02:45:55;;;;;;;9.77;5.57;;;9.60;99.90;;;;;;5071976;28;20435;-66
2022/11/12 02:48:20;;;;;;;10.55;6.10;;;9.70;99.90;;;;;;5085509;28;20104;-66
2022/11/12 02:50:47;;;;;;;9.90;5.75;;;9.70;99.90;;;;;;5068771;28;20058;-66
2022/11/12 02:53:13;;;;;;;9.77;5.68;;;9.80;99.90;;;;;;5069799;28;20039;-66
2022/11/12 02:55:38;;;;;;;9.15;6.20;;;9.90;99.90;;;;;;5072374;28;20024;-65
2022/11/12 02:58:04;;;;;;;13.85;5.93;;;9.90;99.90;;;;;;5074659;28;20093;-65
2022/11/12 03:00:30;;;;;;;14.10;6.75;;;10.00;99.90;;;;;;5072874;28;20108;-66
2022/11/12 03:02:58;;;;;;;8.55;5.55;;;10.00;99.90;;;;;;5070079;28;20434;-66
2022/11/12 03:05:29;;;;;;;10.90;5.57;;;10.10;99.90;;;;;;5074526;28;20038;-66
2022/11/12 03:08:00;;;;;;;9.93;5.65;;;10.10;99.90;;;;;;5076042;28;20036;-66
2022/11/12 03:10:27;;;;;;;11.85;5.93;;;10.20;99.90;;;;;;5074664;28;20032;-65
2022/11/12 03:12:55;;;;;;;11.70;6.13;;;10.20;99.90;;;;;;5072010;28;20024;-65
2022/11/12 03:15:21;;;;;;;11.32;5.78;;;10.30;99.90;;;;;;5076727;28;20384;-66
2022/11/12 03:17:47;;;;;;;8.40;5.65;;;10.30;99.90;;;;;;5074463;28;20052;-66
2022/11/12 03:20:13;;;;;;;12.35;6.57;;;10.30;99.90;;;;;;5075809;28;20024;-66
2022/11/12 03:22:39;;;;;;;10.35;5.97;;;10.30;99.90;;;;;;5076689;28;20078;-66
2022/11/12 03:25:06;;;;;;;12.85;5.63;;;10.40;99.90;;;;;;5071237;28;20021;-66
2022/11/12 03:27:32;;;;;;;8.48;5.80;;;10.30;99.90;;;;;;5078701;28;20504;-66
2022/11/12 03:29:58;;;;;;;11.65;6.82;;;10.40;99.90;;;;;;5076617;28;20045;-66
2022/11/12 03:32:24;;;;;;;8.88;6.05;;;10.40;99.90;;;;;;5080344;28;20119;-66
2022/11/12 03:34:50;;;;;;;9.32;5.55;;;10.40;99.90;;;;;;5068867;28;20159;-65
2022/11/12 03:37:16;;;;;;;8.20;4.97;;;10.40;99.90;;;;;;5069568;28;20025;-66
2022/11/12 03:39:41;;;;;;;7.53;5.40;;;10.40;99.90;;;;;;5078088;28;20360;-64
2022/11/12 03:42:08;;;;;;;10.85;6.43;;;10.50;99.90;;;;;;5069545;28;20099;-64
2022/11/12 03:44:34;;;;;;;7.72;5.40;;;10.50;99.90;;;;;;5070925;28;20040;-64
2022/11/12 03:47:00;;;;;;;9.13;5.53;;;10.50;99.90;;;;;;5082669;28;20357;-64
2022/11/12 03:49:26;;;;;;;7.90;5.35;;;10.60;99.90;;;;;;5069606;28;20074;-66
2022/11/12 03:51:51;;;;;;;10.95;5.70;;;10.60;99.90;;;;;;5077452;28;20379;-66
2022/11/12 03:54:18;;;;;;;7.63;5.90;;;10.50;99.90;;;;;;5062963;28;20729;-66
2022/11/12 03:56:44;;;;;;;8.30;5.35;;;10.60;99.90;;;;;;5068409;28;20044;-65
2022/11/12 03:59:10;;;;;;;9.38;5.43;;;10.50;99.90;;;;;;5080833;28;20024;-66
2022/11/12 04:01:36;;;;;;;8.65;5.65;;;10.40;99.90;;;;;;5078965;28;20087;-65
2022/11/12 04:04:01;;;;;;;9.35;5.55;;;10.40;99.90;;;;;;5080798;28;20020;-66
2022/11/12 04:09:11;;;;;;;7.43;5.38;;;10.20;99.90;;;;;;5071575;28;20102;-66
2022/11/12 04:11:37;;;;;;;9.35;5.38;;;10.20;99.90;;;;;;5067411;28;20033;-66
2022/11/12 04:14:02;;;;;;;8.90;5.13;;;10.10;99.90;;;;;;5070581;28;20028;-66
2022/11/12 04:22:05;;;;;;;7.25;4.85;;;10.00;99.90;;;;;;5073198;28;20027;-66
2022/11/12 04:27:21;;;;;;;9.50;4.65;;;9.80;99.90;;;;;;5070382;28;20102;-66
2022/11/12 04:32:34;;;;;;;7.65;4.95;;;9.60;99.90;;;;;;5075894;28;20146;-65
2022/11/12 04:35:01;;;;;;;14.25;5.60;;;9.60;99.90;;;;;;5053422;28;20153;-67
2022/11/12 04:37:42;;;;;;;8.57;4.88;;;9.70;99.90;;;;;;5063093;28;20388;-66
2022/11/12 04:45:39;;;;;;;7.47;5.28;;;9.80;99.90;;;;;;5070669;28;20069;-66
2022/11/12 04:48:05;;;;;;;7.07;4.63;;;9.80;99.90;;;;;;5079243;28;20036;-66
2022/11/12 04:50:31;;;;;;;9.93;5.95;;;9.70;99.90;;;;;;5075281;28;20046;-66
2022/11/12 04:52:56;;;;;;;11.77;5.65;;;9.70;99.90;;;;;;5084810;28;20070;-66
2022/11/12 04:55:22;;;;;;;8.68;5.72;;;9.70;99.90;;;;;;5081750;28;20403;-66
2022/11/12 04:57:48;;;;;;;6.53;4.72;;;9.70;99.90;;;;;;5083142;28;20035;-66
2022/11/12 05:00:13;;;;;;;8.63;5.35;;;9.70;99.90;;;;;;5075986;28;20027;-66
2022/11/12 05:02:39;;;;;;;8.52;5.30;;;9.70;99.90;;;;;;5074878;28;20376;-66
2022/11/12 05:05:05;;;;;;;7.60;5.13;;;9.70;99.90;;;;;;5072729;28;20029;-65
2022/11/12 05:07:32;;;;;;;10.50;5.70;;;9.80;99.90;;;;;;5083809;28;20127;-65
2022/11/12 05:09:57;;;;;;;12.38;5.47;;;9.90;99.90;;;;;;5077859;28;20093;-65
2022/11/12 05:12:23;;;;;;;9.52;5.15;;;9.90;99.90;;;;;;5083970;28;20020;-65
2022/11/12 05:14:49;;;;;;;10.52;5.88;;;9.80;99.90;;;;;;5089885;28;20463;-64
2022/11/12 05:17:14;;;;;;;10.10;5.20;;;9.80;99.90;;;;;;5084882;28;20064;-65
2022/11/12 05:19:40;;;;;;;11.88;5.53;;;9.80;99.90;;;;;;5079006;28;20065;-65
2022/11/12 05:22:06;;;;;;;11.57;5.25;;;9.80;99.90;;;;;;5082726;28;20063;-66
2022/11/12 05:24:40;;;;;;;9.85;5.93;;;9.80;99.90;;;;;;5083078;28;20024;-65
2022/11/12 05:27:16;;;;;;;9.82;5.55;;;9.80;99.90;;;;;;5089146;28;20028;-66
2022/11/12 05:29:41;;;;;;;12.38;5.55;;;9.80;99.90;;;;;;5075493;28;20217;-65
2022/11/12 05:32:09;;;;;;;10.15;5.72;;;9.80;99.90;;;;;;5075708;28;20058;-66
2022/11/12 05:34:35;;;;;;;9.90;5.68;;;9.80;99.90;;;;;;5073054;28;20397;-65
2022/11/12 05:37:02;;;;;;;10.25;6.05;;;9.90;99.90;;;;;;5070886;28;20032;-65
2022/11/12 05:39:28;;;;;;;11.23;6.00;;;9.90;99.90;;;;;;5079482;28;20031;-65
2022/11/12 05:41:54;;;;;;;12.90;7.00;;;9.90;99.90;;;;;;5071613;28;20420;-65
2022/11/12 05:44:20;;;;;;;11.05;5.68;;;9.90;99.90;;;;;;5079534;28;20028;-65
2022/11/12 05:46:46;;;;;;;8.90;6.07;;;10.00;99.90;;;;;;5078117;28;20158;-66
2022/11/12 05:49:12;;;;;;;10.80;6.18;;;10.00;99.90;;;;;;5071216;28;20062;-65
2022/11/12 05:51:38;;;;;;;10.50;6.43;;;10.00;99.90;;;;;;5078832;28;20742;-66
2022/11/12 05:54:04;;;;;;;11.05;6.13;;;10.10;99.90;;;;;;5073719;28;20054;-66
2022/11/12 05:56:30;;;;;;;10.55;6.45;;;10.10;99.90;;;;;;5077935;28;20028;-65
2022/11/12 05:58:56;;;;;;;10.90;6.30;;;10.10;99.90;;;;;;5071464;28;20399;-65
2022/11/12 06:01:21;;;;;;;11.80;6.38;;;10.10;99.90;;;;;;5070255;28;20468;-66
2022/11/12 06:03:47;;;;;;;16.42;7.28;;;10.10;99.90;;;;;;5071746;28;20028;-65
2022/11/12 06:06:13;;;;;;;10.07;6.43;;;10.20;99.90;;;;;;5071501;28;20503;-65
2022/11/12 06:08:39;;;;;;;11.85;7.32;;;10.20;99.90;;;;;;5067303;28;20063;-65
2022/11/12 06:11:05;;;;;;;10.85;6.60;;;10.30;99.90;;;;;;5074360;28;20056;-66
2022/11/12 06:13:30;;;;;;;11.23;6.43;;;10.30;99.90;;;;;;5074797;28;20043;-65
2022/11/12 06:15:56;;;;;;;9.50;6.80;;;10.40;99.90;;;;;;5065608;28;20040;-64
2022/11/12 06:18:23;;;;;;;9.80;6.47;;;10.40;99.90;;;;;;5075059;28;20482;-65
2022/11/12 06:21:18;;;;;;;11.27;5.85;;;10.40;99.90;;;;;;5078421;28;20023;-66
2022/11/12 06:23:35;;;;;;;10.23;6.80;;;10.50;99.90;;;;;;5077089;28;20128;-65
2022/11/12 06:26:01;;;;;;;12.13;5.65;;;10.50;99.90;;;;;;5067273;28;20032;-65
2022/11/12 06:28:27;;;;;;;8.80;6.00;;;10.60;99.90;;;;;;5072382;28;20396;-68
2022/11/12 06:30:53;;;;;;;10.93;6.28;;;10.60;99.90;;;;;;5070058;28;20020;-65
2022/11/12 06:33:19;;;;;;;11.85;6.60;;;10.60;99.90;;;;;;5072968;28;20028;-65
2022/11/12 06:35:44;;;;;;;15.40;7.28;;;10.60;99.90;;;;;;5069253;28;20020;-65
2022/11/12 06:38:10;;;;;;;12.20;7.10;;;10.50;99.90;;;;;;5078188;28;20020;-66
2022/11/12 06:40:36;;;;;;;10.32;6.57;;;10.50;99.90;;;;;;5072397;28;20115;-65
2022/11/12 06:43:01;;;;;;;13.48;7.35;;;10.50;99.90;;;;;;5070205;28;20020;-66
2022/11/12 06:45:27;;;;;;;11.40;6.88;;;10.50;99.90;;;;;;5074813;28;20035;-65
2022/11/12 06:47:57;;;;;;;11.73;6.28;;;10.50;99.90;;;;;;5079485;28;20028;-66
2022/11/12 06:50:22;;;;;;;8.02;6.03;;;10.50;99.90;;;;;;5076664;28;20064;-65
2022/11/12 06:52:48;;;;;;;16.10;6.93;;;10.50;99.90;;;;;;5075204;28;20062;-65
2022/11/12 06:55:14;;;;;;;11.23;5.80;;;10.40;99.90;;;;;;5071809;28;20036;-65
2022/11/12 06:57:39;;;;;;;13.40;7.10;;;10.50;99.90;;;;;;5069696;28;20387;-65
2022/11/12 07:00:06;;;;;;;9.77;6.10;;;10.50;99.90;;;;;;5068230;28;20052;-65
2022/11/12 07:02:32;;;;;;;12.93;6.88;;;10.60;99.90;;;;;;5064300;28;20487;-66
2022/11/12 07:04:57;;;;;;;11.15;6.45;;;10.60;99.90;;;;;;5071876;28;20066;-65
2022/11/12 07:07:23;;;;;;;13.02;7.53;;;10.60;99.90;;;;;;5081110;28;20471;-65
2022/11/12 07:09:49;;;;;;;9.68;6.50;;;10.60;99.90;;;;;;5071370;28;20090;-66
2022/11/12 07:12:14;;;;;;;9.48;5.97;;;10.60;99.90;;;;;;5072870;28;20031;-65
2022/11/12 07:14:40;;;;;;;10.70;6.10;;;10.60;99.90;;;;;;5081991;28;20044;-65
2022/11/12 07:17:06;;;;;;;12.82;6.60;;;10.60;99.90;;;;;;5074416;28;20028;-66
2022/11/12 07:19:31;;;;;;;11.63;6.75;;;10.60;99.90;;;;;;5073441;28;20384;-66
2022/11/12 07:21:57;;;;;;;12.25;6.63;;;10.70;99.90;;;;;;5080014;28;20020;-66
2022/11/12 07:24:23;;;;;;;13.38;7.38;;;10.60;99.90;;;;;;5075513;28;20111;-66
2022/11/12 07:26:48;;;;;;;7.97;6.05;;;10.60;99.90;;;;;;5069779;28;20388;-66
2022/11/12 07:29:14;;;;;;;10.00;6.47;;;10.60;99.90;;;;;;5075428;28;20043;-65
2022/11/12 07:31:40;;;;;;;12.52;7.32;;;10.50;99.90;;;;;;5076991;28;20024;-65
2022/11/12 07:34:06;;;;;;;10.68;7.05;;;10.50;99.90;;;;;;5068148;28;20464;-65
2022/11/12 07:36:31;;;;;;;10.65;6.78;;;10.60;99.90;;;;;;5052013;28;20052;-65
2022/11/12 07:38:57;;;;;;;10.68;6.13;;;10.60;99.90;;;;;;5077332;28;20111;-66
2022/11/12 07:41:23;;;;;;;12.93;6.93;;;10.70;99.90;;;;;;5069689;28;20029;-65
2022/11/12 07:43:51;;;;;;;10.65;6.65;;;10.80;99.90;;;;;;5076264;28;20028;-65
2022/11/12 07:46:22;;;;;;;12.98;7.15;;;10.90;99.90;;;;;;5079828;28;20078;-66
2022/11/12 07:48:48;;;;;;;10.30;6.72;;;11.00;99.90;;;;;;5070826;28;20040;-64
2022/11/12 07:51:15;;;;;;;11.45;8.40;;;11.10;99.90;;;;;;5076409;28;20135;-66
2022/11/12 07:53:42;;;;;;;10.18;6.25;;;11.20;99.90;;;;;;5067006;28;20143;-65
2022/11/12 07:56:11;;;;;;;15.25;6.93;;;11.30;99.90;;;;;;5070818;28;20070;-65
2022/11/12 07:58:37;;;;;;;10.07;6.78;;;11.30;99.90;;;;;;5062756;28;20452;-67
2022/11/12 08:01:10;;;;;;;11.75;7.10;;;11.40;99.90;;;;;;5074162;28;20052;-67
2022/11/12 08:03:36;;;;;;;15.88;7.25;;;11.40;99.90;;;;;;5062152;28;20025;-65
2022/11/12 08:06:03;;;;;;;12.95;7.32;;;11.60;99.90;;;;;;5079493;28;20030;-67
2022/11/12 08:08:29;;;;;;;11.23;7.35;;;11.60;99.90;;;;;;5069992;28;20063;-65
2022/11/12 08:10:58;;;;;;;15.18;7.30;;;11.60;99.90;;;;;;5068342;28;20599;-66
2022/11/12 08:13:24;;;;;;;10.32;6.60;;;11.80;99.90;;;;;;5074440;28;20020;-66
2022/11/12 08:15:50;;;;;;;11.25;7.88;;;11.80;99.90;;;;;;5071134;28;20078;-67
2022/11/12 08:18:17;;;;;;;11.48;6.78;;;11.80;99.90;;;;;;5080909;28;20078;-66
2022/11/12 08:20:43;;;;;;;10.40;6.25;;;11.90;99.90;;;;;;5074510;28;20395;-64
2022/11/12 08:23:09;;;;;;;14.82;7.22;;;11.90;99.90;;;;;;5073237;28;20043;-66
2022/11/12 08:25:35;;;;;;;9.65;6.60;;;11.90;99.90;;;;;;5074081;28;20028;-66
2022/11/12 08:28:01;;;;;;;10.43;6.20;;;12.00;99.90;;;;;;5074501;28;20411;-67
2022/11/12 08:30:28;;;;;;;9.70;6.70;;;12.00;99.90;;;;;;5076301;28;20065;-67
2022/11/12 08:32:59;;;;;;;10.25;6.78;;;12.10;99.90;;;;;;5085153;28;20131;-66
2022/11/12 08:35:26;;;;;;;9.88;6.57;;;12.20;99.90;;;;;;5066791;28;20055;-66
2022/11/12 08:37:57;;;;;;;9.65;6.25;;;12.30;99.90;;;;;;5057718;28;20051;-65
2022/11/12 08:40:23;;;;;;;10.68;7.35;;;12.30;99.90;;;;;;5081050;28;20450;-66
2022/11/12 08:43:03;;;;;;;11.07;7.13;;;12.30;99.90;;;;;;5078608;28;20066;-65
2022/11/12 08:45:31;;;;;;;11.77;7.13;;;12.40;99.90;;;;;;5074316;28;20395;-67
2022/11/12 08:48:06;;;;;;;10.85;6.90;;;12.30;99.90;;;;;;5078087;28;20033;-66
2022/11/12 08:50:33;;;;;;;9.90;6.85;;;12.40;99.90;;;;;;5071848;28;20048;-65
2022/11/12 08:53:04;;;;;;;12.00;7.55;;;12.40;99.90;;;;;;5079262;28;20039;-65
2022/11/12 08:55:32;;;;;;;10.35;6.80;;;12.40;99.90;;;;;;5088158;28;20176;-66
2022/11/12 08:58:01;;;;;;;13.82;6.90;;;12.50;99.90;;;;;;5051481;28;20024;-66
2022/11/12 09:00:52;;;;;;;9.95;6.80;;;12.60;99.90;;;;;;5066482;28;20483;-65
2022/11/12 09:03:21;;;;;;;14.10;7.13;;;12.60;99.90;;;;;;5071973;28;20046;-66
2022/11/12 09:05:47;;;;;;;17.15;7.05;;;12.60;99.90;;;;;;5076692;28;20032;-65
2022/11/12 09:08:16;;;;;;;9.30;5.88;;;12.70;99.90;;;;;;5072811;28;20021;-66
2022/11/12 09:10:43;;;;;;;8.77;6.60;;;12.70;99.90;;;;;;5064785;28;20418;-67
2022/11/12 09:13:09;;;;;;;7.80;6.28;;;12.70;99.90;;;;;;5073026;28;20016;-66
2022/11/12 09:15:35;;;;;;;11.18;7.05;;;12.80;99.90;;;;;;5068705;28;20464;-66
2022/11/12 09:18:04;;;;;;;14.93;7.10;;;12.90;99.90;;;;;;5063478;28;20081;-66
2022/11/12 09:20:31;;;;;;;13.15;6.88;;;13.00;99.90;;;;;;5064779;28;20134;-68
2022/11/12 09:23:05;;;;;;;7.53;5.90;;;13.00;99.90;;;;;;5078436;28;20060;-67
2022/11/12 09:25:32;;;;;;;10.80;6.43;;;13.00;99.90;;;;;;5075717;28;20043;-66
2022/11/12 09:28:04;;;;;;;12.55;5.90;;;13.00;99.90;;;;;;5070323;28;20073;-67
2022/11/12 09:30:29;;;;;;;;;;;13.10;99.90;;;;;;5080088;28;20030;-67
2022/11/12 09:32:58;;;;;;;10.43;6.60;;;13.10;99.90;;;;;;5072154;28;19912;-67
2022/11/12 09:35:24;;;;;;;11.90;6.30;;;13.10;99.90;;;;;;5065671;28;20476;-67
2022/11/12 09:37:50;;;;;;;9.90;6.22;;;13.20;99.90;;;;;;5068843;28;20036;-67
2022/11/12 09:40:18;;;;;;;8.98;5.75;;;13.30;99.90;;;;;;5071702;28;20118;-68
2022/11/12 09:42:50;;;;;;;7.57;5.55;;;13.40;99.90;;;;;;5057339;28;20024;-68
2022/11/12 09:45:31;;;;;;;11.63;6.10;;;13.50;99.90;;;;;;5061426;28;20021;-68
2022/11/12 09:48:02;;;;;;;9.70;6.10;;;13.70;99.90;;;;;;5072129;28;20033;-68
2022/11/12 09:50:31;;;;;;;8.93;5.85;;;13.80;99.90;;;;;;5075458;28;20078;-68
2022/11/12 09:53:06;;;;;;;7.10;5.15;;;13.90;99.90;;;;;;5077348;28;20111;-67
2022/11/12 09:55:42;;;;;;;5.97;4.78;;;14.00;99.90;;;;;;5070525;28;20415;-74
2022/11/12 09:58:13;;;;;;;8.50;4.63;;;14.20;99.90;;;;;;5074773;28;20024;-71
2022/11/12 10:00:54;;;;;;;6.03;4.57;;;14.20;99.90;;;;;;5067340;28;20082;-66
2022/11/12 10:03:36;;;;;;;8.13;5.05;;;14.20;99.90;;;;;;5069808;28;20060;-66
2022/11/12 10:06:18;;;;;;;5.32;4.25;;;14.30;99.90;;;;;;5070995;28;20362;-67
2022/11/12 10:08:50;;;;;;;7.93;4.97;;;14.30;99.90;;;;;;5070233;28;20495;-67
2022/11/12 10:14:22;;;;;;;8.50;4.63;;;14.50;99.90;;;;;;5073599;28;20147;-67
2022/11/12 10:17:17;;;;;;;10.63;5.35;;;14.80;99.90;;;;;;5068441;28;20127;-66
2022/11/12 10:19:56;;;;;;;7.32;4.93;;;14.80;99.90;;;;;;5076858;28;20036;-67
2022/11/12 10:22:30;;;;;;;6.85;4.22;;;14.80;99.90;;;;;;5078993;28;20479;-66
2022/11/12 10:24:58;;;;;;;7.10;4.43;;;14.80;99.90;;;;;;5070834;28;20132;-67
2022/11/12 10:27:35;;;;;;;9.98;5.53;;;14.80;99.90;;;;;;5077882;28;20460;-66
2022/11/12 10:30:04;;;;;;;5.88;4.28;;;15.10;99.90;;;;;;5076763;28;20036;-66
2022/11/12 10:32:30;;;;;;;9.52;4.82;;;15.20;99.90;;;;;;5077593;28;20540;-66
2022/11/12 10:34:55;;;;;;;5.85;4.20;;;15.30;99.90;;;;;;5066829;28;20077;-66
2022/11/12 10:37:46;;;;;;;5.70;4.28;;;15.40;99.90;;;;;;5075246;28;20034;-67
2022/11/12 10:40:30;;;;;;;4.20;3.65;;;15.60;99.90;;;;;;5077316;28;20055;-66
2022/11/12 10:43:23;;;;;;;8.27;3.88;;;15.80;99.90;;;;;;5076430;28;20067;-67
2022/11/12 10:45:50;;;;;;;4.57;3.55;;;15.70;99.90;;;;;;5069501;28;20029;-67
2022/11/12 10:48:33;;;;;;;48.30;24.48;;;15.60;99.90;;;;;;5069937;28;20488;-66
2022/11/12 10:50:59;;;;;;;7.63;5.03;;;15.50;99.90;;;;;;5058397;28;20056;-66
2022/11/12 10:53:38;;;;;;;5.07;3.67;;;15.60;99.90;;;;;;5067754;28;20036;-67
2022/11/12 10:56:24;;;;;;;6.68;3.47;;;15.60;99.90;;;;;;5072962;28;20552;-66
2022/11/12 10:59:16;;;;;;;6.53;3.40;;;15.70;99.90;;;;;;5063545;28;20028;-67
2022/11/12 11:01:44;;;;;;;6.32;3.20;;;15.80;99.90;;;;;;5064456;28;20051;-67
2022/11/12 11:04:36;;;;;;;5.18;3.42;;;15.80;99.90;;;;;;5065675;28;20031;-67
2022/11/12 11:07:22;;;;;;;4.55;2.83;;;16.30;99.90;;;;;;5059473;28;20468;-67
2022/11/12 11:10:00;;;;;;;4.97;3.08;;;16.80;99.90;;;;;;5057560;28;20041;-66
2022/11/12 11:12:29;;;;;;;4.78;2.70;;;17.30;99.90;;;;;;5062961;28;20074;-66
2022/11/12 11:15:21;;;;;;;2.42;1.77;;;17.40;99.90;;;;;;5066063;28;20040;-66
2022/11/12 11:17:47;;;;;;;2.63;2.42;;;17.80;99.90;;;;;;5060468;28;20464;-66
2022/11/12 11:20:34;;;;;;;5.53;2.40;;;18.00;99.90;;;;;;5068916;28;20025;-66
2022/11/12 11:23:03;;;;;;;2.80;2.30;;;18.10;99.90;;;;;;5054119;28;20035;-67
2022/11/12 11:25:34;;;;;;;2.70;1.98;;;18.20;99.90;;;;;;5063495;28;20021;-68
2022/11/12 11:28:11;;;;;;;5.78;2.47;;;18.20;99.90;;;;;;5053267;28;20036;-66
2022/11/12 11:30:50;;;;;;;3.15;2.40;;;18.50;99.90;;;;;;5073231;28;20044;-67
2022/11/12 11:33:36;;;;;;;3.72;2.50;;;18.60;99.90;;;;;;5061325;28;20025;-67
2022/11/12 11:36:02;;;;;;;5.15;2.28;;;18.50;99.90;;;;;;5054778;28;20025;-67
2022/11/12 11:38:57;;;;;;;2.63;2.40;;;18.60;99.90;;;;;;5065341;28;20075;-66
2022/11/12 11:41:32;;;;;;;3.17;2.30;;;18.50;99.90;;;;;;5056186;28;20032;-67
2022/11/12 11:44:29;;;;;;;5.15;2.22;;;18.60;99.90;;;;;;5067677;28;20032;-67
2022/11/12 11:47:39;;;;;;;3.35;2.53;;;18.90;99.90;;;;;;4974336;28;20035;-67
2022/11/12 11:50:25;;;;;;;6.60;2.70;;;19.10;99.90;;;;;;4899216;29;20146;-68
2022/11/12 11:53:08;;;;;;;2.97;2.13;;;19.20;99.90;;;;;;4897697;29;20520;-68
2022/11/12 11:55:53;;;;;;;4.07;1.98;;;19.40;99.90;;;;;;4899179;29;20048;-67
2022/11/12 11:58:28;;;;;;;3.45;2.10;;;19.50;99.90;;;;;;4888183;29;20064;-66
2022/11/12 12:01:03;;;;;;;4.85;2.78;;;19.50;99.90;;;;;;4905202;29;20126;-61
2022/11/12 12:03:45;;;;;;;4.90;3.00;;;19.90;99.90;;;;;;4906659;29;20657;-66
2022/11/12 12:06:26;;;;;;;3.78;2.63;;;19.90;99.90;;;;;;4897594;29;20032;-65
2022/11/12 12:09:39;;;;;;;5.97;1.95;;;20.10;99.90;;;;;;4906605;29;20048;-67
2022/11/12 12:12:31;;;;;;;2.08;1.88;;;20.30;99.90;;;;;;4838457;29;20034;-65
2022/11/12 12:15:17;;;;;;;5.15;2.13;;;20.30;99.90;;;;;;4816814;29;20045;-65
2022/11/12 12:18:03;;;;;;;5.22;2.10;;;20.10;99.90;;;;;;4835127;29;20054;-64
2022/11/12 12:27:27;;;;;;;4.43;2.25;;;20.70;99.90;;;;;;4986456;28;20045;-65
2022/11/12 12:30:01;;;;;;;2.90;2.40;;;20.70;99.90;;;;;;4972180;28;20046;-65
2022/11/12 12:32:36;;;;;;;2.85;1.98;;;20.90;99.90;;;;;;4990403;28;20029;-67
2022/11/12 12:35:36;;;;;;;2.95;2.05;;;21.10;99.90;;;;;;4980885;28;20168;-66
2022/11/12 12:38:16;;;;;;;5.50;1.90;;;20.80;99.90;;;;;;4982565;28;20514;-66
2022/11/12 12:40:51;;;;;;;2.35;1.63;;;20.90;99.90;;;;;;4988931;28;20121;-66
2022/11/12 12:43:22;;;;;;;4.57;2.22;;;20.90;99.90;;;;;;5042935;28;20060;-66
2022/11/12 12:45:48;;;;;;;3.33;2.17;;;20.80;99.90;;;;;;5068405;28;20036;-67
2022/11/12 12:48:22;;;;;;;2.03;1.70;;;20.90;99.90;;;;;;5079231;28;20103;-67
2022/11/12 12:50:50;;;;;;;3.08;2.15;;;20.80;99.90;;;;;;5072028;28;20060;-66
2022/11/12 12:53:17;;;;;;;2.85;1.65;;;20.90;99.90;;;;;;5079969;28;20028;-65
2022/11/12 12:55:48;;;;;;;4.60;2.05;;;20.80;99.90;;;;;;5078116;28;20383;-67
2022/11/12 12:58:32;;;;;;;2.47;1.75;;;20.90;99.90;;;;;;5076556;28;20024;-66
2022/11/12 13:01:00;;;;;;;6.18;1.83;;;20.90;99.90;;;;;;5069375;28;20549;-66
2022/11/12 13:04:04;;;;;;;2.10;1.88;;;20.90;99.90;;;;;;5067795;28;20025;-66
2022/11/12 13:06:59;;;;;;;5.22;2.25;;;20.70;99.90;;;;;;5081737;28;20036;-66
2022/11/12 13:09:27;;;;;;;2.47;1.92;;;20.90;99.90;;;;;;5060862;28;20040;-67
2022/11/12 13:14:34;;;;;;;4.00;2.63;;;20.80;99.90;;;;;;5076612;28;20456;-66
2022/11/12 13:17:06;;;;;;;3.75;2.13;;;20.90;99.90;;;;;;5071211;28;20516;-66
2022/11/12 13:19:51;;;;;;;1.98;1.60;;;21.00;99.90;;;;;;5089017;28;20113;-67
2022/11/12 13:22:17;;;;;;;4.75;2.03;;;21.00;99.90;;;;;;5067448;28;20024;-67
2022/11/12 13:25:23;;;;;;;3.10;1.70;;;21.40;99.90;;;;;;5078953;28;20384;-67
2022/11/12 13:27:49;;;;;;;4.22;2.45;;;21.50;99.90;;;;;;5072620;28;20036;-67
2022/11/12 13:30:19;;;;;;;3.60;1.83;;;21.50;99.90;;;;;;5075107;28;20431;-67
2022/11/12 13:32:45;;;;;;;2.40;1.88;;;21.40;99.90;;;;;;5072028;28;20033;-67